Time;durP1;ratioP1;P1;durP2;ratioP2;P2;SDS_P1;SDS_P2;PMS_P1;PMS_P2;Temp;Humidity;BMP_temperature;BMP_pressure;BME280_temperature;BME280_humidity;BME280_pressure;Samples;Min_cycle;Max_cycle;Signal;HPM_P1;HPM_P2
2023/05/17 00:01:43;;;;;;;13.80;8.18;;;;;;;14.79;100.00;99839.47;4954581;28;20031;-73
2023/05/17 00:04:10;;;;;;;16.17;9.55;;;;;;;14.86;100.00;99855.13;4954697;28;20035;-71
2023/05/17 00:06:35;;;;;;;18.23;9.30;;;;;;;14.74;100.00;99857.63;4954694;28;20035;-73
2023/05/17 00:09:01;;;;;;;17.65;9.20;;;;;;;14.81;100.00;99858.56;4954615;28;20031;-70
2023/05/17 00:11:26;;;;;;;13.80;8.98;;;;;;;14.65;100.00;99853.19;4953905;28;20075;-72
2023/05/17 00:13:51;;;;;;;16.33;8.95;;;;;;;14.66;100.00;99886.13;4953197;28;20034;-72
2023/05/17 00:16:17;;;;;;;17.27;9.20;;;;;;;14.55;100.00;99865.22;4954075;28;20045;-72
2023/05/17 00:18:42;;;;;;;17.20;9.07;;;;;;;14.82;100.00;99891.50;4954446;28;20042;-71
2023/05/17 00:21:08;;;;;;;15.07;7.75;;;;;;;14.90;100.00;99894.16;4954009;28;20110;-72
2023/05/17 00:23:33;;;;;;;13.90;8.15;;;;;;;14.85;100.00;99882.00;4954289;28;20023;-70
2023/05/17 00:25:58;;;;;;;14.30;8.70;;;;;;;14.83;100.00;99882.84;4954323;28;20038;-72
2023/05/17 00:28:24;;;;;;;14.80;8.57;;;;;;;14.87;100.00;99898.47;4953700;28;20027;-71
2023/05/17 00:30:49;;;;;;;12.50;8.15;;;;;;;14.68;100.00;99865.38;4954167;28;20406;-71
2023/05/17 00:33:15;;;;;;;16.40;8.57;;;;;;;14.81;100.00;99905.34;4954090;28;20028;-72
2023/05/17 00:35:40;;;;;;;15.50;7.75;;;;;;;14.81;100.00;99892.34;4953725;28;20544;-71
2023/05/17 00:38:06;;;;;;;12.60;8.63;;;;;;;14.57;100.00;99866.06;4953583;28;20512;-72
2023/05/17 00:40:31;;;;;;;16.00;8.77;;;;;;;14.71;100.00;99887.03;4953830;28;20030;-71
2023/05/17 00:42:57;;;;;;;13.40;8.55;;;;;;;14.67;100.00;99876.63;4953480;28;20023;-72
2023/05/17 00:45:22;;;;;;;15.32;8.45;;;;;;;14.68;100.00;99879.22;4953442;28;20063;-73
2023/05/17 00:47:47;;;;;;;17.05;9.57;;;;;;;14.60;100.00;99875.63;4967342;28;20032;-72
2023/05/17 00:50:13;;;;;;;18.70;10.05;;;;;;;14.52;100.00;99872.09;4965853;28;20070;-71
2023/05/17 00:52:39;;;;;;;17.67;9.82;;;;;;;14.49;100.00;99877.25;4953674;28;20111;-70
2023/05/17 00:55:05;;;;;;;16.23;10.27;;;;;;;14.48;100.00;99883.28;4955750;28;20027;-71
2023/05/17 00:57:31;;;;;;;17.95;9.55;;;;;;;14.50;100.00;99889.38;4963000;28;20031;-72
2023/05/17 00:59:57;;;;;;;16.20;10.05;;;;;;;14.51;100.00;99893.72;4952991;28;20039;-71
2023/05/17 01:02:23;;;;;;;15.07;10.48;;;;;;;14.29;100.00;99870.06;4953364;28;20110;-73
2023/05/17 01:04:48;;;;;;;13.13;10.10;;;;;;;14.43;100.00;99885.84;4953302;28;20027;-72
2023/05/17 01:07:14;;;;;;;15.32;10.23;;;;;;;14.48;100.00;99878.09;4953282;28;20399;-70
2023/05/17 01:09:40;;;;;;;13.98;9.85;;;;;;;14.46;100.00;99866.84;4953017;28;20526;-74
2023/05/17 01:12:23;;;;;;;16.00;10.82;;;;;;;14.68;100.00;99905.22;4968012;28;20138;-72
2023/05/17 01:14:54;;;;;;;22.98;10.15;;;;;;;14.73;100.00;99907.88;4953389;28;20026;-73
2023/05/17 01:17:38;;;;;;;15.07;9.95;;;;;;;14.78;100.00;99910.50;4953177;28;20043;-71
2023/05/17 01:20:33;;;;;;;15.70;9.38;;;;;;;14.65;100.00;99920.75;4953310;28;20100;-77
2023/05/17 01:23:08;;;;;;;14.88;9.77;;;;;;;14.71;100.00;99925.16;4953033;28;20039;-73
2023/05/17 01:26:00;;;;;;;17.77;9.57;;;;;;;14.73;100.00;99920.84;4952890;28;20118;-72
2023/05/17 01:28:27;;;;;;;15.00;10.15;;;;;;;14.62;100.00;99899.91;4950244;28;20043;-71
2023/05/17 01:30:54;;;;;;;13.05;9.02;;;;;;;14.35;100.00;99830.34;4950448;28;20035;-70
2023/05/17 01:33:20;;;;;;;16.17;8.63;;;;;;;14.25;100.00;99806.00;4950102;28;20083;-74
2023/05/17 01:35:46;;;;;;;17.27;9.77;;;;;;;14.83;100.00;99891.50;4950773;28;20038;-74
2023/05/17 01:38:11;;;;;;;14.55;9.52;;;;;;;14.81;100.00;99884.56;4950437;28;20035;-73
2023/05/17 01:40:45;;;;;;;14.93;9.70;;;;;;;14.75;100.00;99863.69;4950351;28;20950;-74
2023/05/17 01:43:38;;;;;;;15.85;8.90;;;;;;;14.77;100.00;99875.84;4950187;28;20027;-73
2023/05/17 01:46:17;;;;;;;18.08;9.18;;;;;;;14.55;100.00;99838.34;4906730;29;20040;-73
2023/05/17 01:48:59;;;;;;;13.40;8.50;;;;;;;14.47;100.00;99850.41;4911911;29;20490;-73
2023/05/17 01:51:32;;;;;;;13.57;9.15;;;;;;;14.69;100.00;99875.78;4910589;29;20032;-72
2023/05/17 01:54:02;;;;;;;27.98;9.40;;;;;;;14.72;100.00;99891.38;4911323;29;20134;-73
2023/05/17 01:56:33;;;;;;;15.40;9.07;;;;;;;14.45;100.00;99818.34;4911730;29;20075;-70
2023/05/17 01:59:01;;;;;;;14.75;8.77;;;;;;;14.78;100.00;99875.00;4910582;29;20048;-72
2023/05/17 02:01:28;;;;;;;16.25;9.40;;;;;;;14.82;100.00;99878.50;4911880;29;20062;-74
2023/05/17 02:03:53;;;;;;;19.85;9.60;;;;;;;14.76;100.00;99881.91;4912197;29;20048;-73
2023/05/17 02:06:18;;;;;;;12.27;8.27;;;;;;;14.93;100.00;99876.88;4911587;29;20496;-73
2023/05/17 02:08:44;;;;;;;10.57;8.45;;;;;;;14.97;100.00;99870.84;4911448;29;20481;-75
2023/05/17 02:11:09;;;;;;;11.48;7.93;;;;;;;15.11;100.00;99889.16;4911652;29;20462;-73
2023/05/17 02:13:35;;;;;;;14.18;8.27;;;;;;;15.16;100.00;99887.47;4922203;29;20043;-79
2023/05/17 02:16:02;;;;;;;15.27;8.38;;;;;;;15.22;100.00;99896.22;4919464;29;20050;-70
2023/05/17 02:18:27;;;;;;;16.35;8.50;;;;;;;14.65;100.00;99813.38;4928215;29;20036;-72
2023/05/17 02:20:53;;;;;;;12.63;8.18;;;;;;;15.00;100.00;99876.09;4930852;29;20490;-72
2023/05/17 02:23:18;;;;;;;15.15;8.18;;;;;;;14.64;100.00;99814.19;4954965;28;20497;-70
2023/05/17 02:25:44;;;;;;;14.57;8.60;;;;;;;15.09;100.00;99887.41;4971787;28;20502;-72
2023/05/17 02:28:09;;;;;;;14.50;8.38;;;;;;;14.99;100.00;99879.53;4971633;28;20042;-71
2023/05/17 02:30:36;;;;;;;17.67;8.57;;;;;;;14.60;100.00;99809.81;4971659;28;20034;-71
2023/05/17 02:33:01;;;;;;;14.55;8.73;;;;;;;14.93;100.00;99878.59;4971534;28;20045;-71
2023/05/17 02:35:26;;;;;;;14.25;8.32;;;;;;;14.92;100.00;99897.66;4972311;28;20409;-74
2023/05/17 02:37:52;;;;;;;14.65;8.68;;;;;;;14.88;100.00;99889.81;4975442;28;20066;-73
2023/05/17 02:40:17;;;;;;;15.02;9.25;;;;;;;15.01;100.00;99909.00;4975674;28;20130;-79
2023/05/17 02:42:43;;;;;;;13.88;8.68;;;;;;;14.62;100.00;99832.38;4975634;28;20045;-71
2023/05/17 02:45:08;;;;;;;14.27;8.23;;;;;;;14.53;100.00;99827.94;4975399;28;20030;-73
2023/05/17 02:47:34;;;;;;;15.40;8.35;;;;;;;15.10;100.00;99915.16;4990366;28;20030;-73
2023/05/17 02:49:59;;;;;;;12.32;7.25;;;;;;;15.01;100.00;99909.00;4975166;28;20493;-73
2023/05/17 02:52:25;;;;;;;13.43;8.35;;;;;;;14.99;100.00;99909.84;4975181;28;20065;-73
2023/05/17 02:54:50;;;;;;;11.43;7.18;;;;;;;15.01;100.00;99908.13;4975110;28;20035;-72
2023/05/17 02:57:16;;;;;;;12.73;7.43;;;;;;;14.99;100.00;99915.03;4972797;28;20375;-73
2023/05/17 02:59:41;;;;;;;15.30;8.32;;;;;;;14.79;100.00;99914.84;4975325;28;20031;-72
2023/05/17 03:02:06;;;;;;;15.23;8.65;;;;;;;14.76;100.00;99925.22;4974554;28;20054;-73
2023/05/17 03:04:32;;;;;;;13.85;8.23;;;;;;;14.69;100.00;99922.53;4974954;28;20027;-71
2023/05/17 03:06:58;;;;;;;16.13;9.07;;;;;;;14.45;100.00;99896.25;4974840;28;20062;-73
2023/05/17 03:09:23;;;;;;;15.73;8.45;;;;;;;14.13;100.00;99868.16;4975158;28;20033;-73
2023/05/17 03:11:49;;;;;;;15.07;8.35;;;;;;;13.63;100.00;99802.63;4975100;28;20058;-73
2023/05/17 03:14:15;;;;;;;15.48;9.02;;;;;;;14.03;100.00;99874.94;4975065;28;20027;-72
2023/05/17 03:16:40;;;;;;;13.15;8.73;;;;;;;14.19;100.00;99909.75;4974938;28;20029;-71
2023/05/17 03:19:06;;;;;;;14.05;9.18;;;;;;;14.13;100.00;99914.88;4974818;28;20564;-75
2023/05/17 03:21:31;;;;;;;17.73;9.75;;;;;;;13.78;100.00;99847.81;4974703;28;20038;-72
2023/05/17 03:23:57;;;;;;;15.27;10.10;;;;;;;14.24;100.00;99924.56;4973631;28;20094;-72
2023/05/17 03:26:23;;;;;;;15.35;10.45;;;;;;;13.77;100.00;99840.88;4974720;28;20474;-71
2023/05/17 03:28:48;;;;;;;18.77;11.32;;;;;;;14.22;100.00;99920.22;4988646;28;20054;-71
2023/05/17 03:31:14;;;;;;;18.23;11.00;;;;;;;14.20;100.00;99929.69;4974707;28;20035;-73
2023/05/17 03:33:39;;;;;;;16.10;11.52;;;;;;;14.13;100.00;99930.44;4974701;28;20034;-73
2023/05/17 03:36:06;;;;;;;19.73;12.13;;;;;;;14.12;100.00;99941.69;4974486;28;20027;-75
2023/05/17 03:38:31;;;;;;;21.85;11.90;;;;;;;14.11;100.00;99950.34;4974710;28;20050;-80
2023/05/17 03:40:57;;;;;;;23.77;12.32;;;;;;;14.04;100.00;99952.84;4974855;28;20031;-73
2023/05/17 03:43:22;;;;;;;22.83;12.30;;;;;;;13.92;100.00;99952.66;4974385;28;20042;-72
2023/05/17 03:45:48;;;;;;;25.50;13.82;;;;;;;13.89;100.00;99947.41;4974398;28;20401;-74
2023/05/17 03:48:13;;;;;;;21.23;13.70;;;;;;;13.84;100.00;99933.50;4972168;28;20548;-78
2023/05/17 03:50:39;;;;;;;23.55;13.15;;;;;;;14.00;100.00;99957.97;4974103;28;20456;-74
2023/05/17 03:53:05;;;;;;;21.98;13.57;;;;;;;14.07;100.00;99955.47;4974170;28;20133;-74
2023/05/17 03:55:31;;;;;;;21.70;13.88;;;;;;;13.77;100.00;99880.66;4974176;28;20077;-74
2023/05/17 03:57:57;;;;;;;17.90;12.75;;;;;;;14.01;100.00;99893.09;4973358;28;20050;-74
2023/05/17 04:00:23;;;;;;;20.05;11.80;;;;;;;14.48;100.00;99954.28;4974133;28;20027;-74
2023/05/17 04:02:50;;;;;;;17.90;12.80;;;;;;;14.54;100.00;99937.91;4972074;28;20513;-74
2023/05/17 04:05:16;;;;;;;16.85;11.13;;;;;;;14.68;100.00;99940.72;4973228;28;20023;-75
2023/05/17 04:07:41;;;;;;;17.05;10.85;;;;;;;14.39;100.00;99907.41;4973815;28;20103;-72
2023/05/17 04:10:07;;;;;;;19.95;12.05;;;;;;;14.75;100.00;99971.09;4973687;28;20034;-72
2023/05/17 04:12:34;;;;;;;18.60;12.43;;;;;;;14.76;100.00;99962.44;4973956;28;20038;-72
2023/05/17 04:14:59;;;;;;;17.63;11.55;;;;;;;14.62;100.00;99945.81;4973271;28;20109;-73
2023/05/17 04:17:25;;;;;;;17.67;12.10;;;;;;;14.44;100.00;99929.13;4973577;28;20042;-79
2023/05/17 04:19:50;;;;;;;23.38;13.55;;;;;;;14.52;100.00;99963.00;4972381;28;20026;-72
2023/05/17 04:22:36;;;;;;;16.00;12.80;;;;;;;14.63;100.00;99979.59;4962909;28;20129;-76
2023/05/17 04:25:01;;;;;;;19.17;12.88;;;;;;;14.54;100.00;99974.25;4960375;28;20027;-75
2023/05/17 04:27:26;;;;;;;21.05;12.73;;;;;;;14.50;100.00;99972.50;4954450;28;20050;-76
2023/05/17 04:29:52;;;;;;;17.38;12.50;;;;;;;14.44;100.00;99964.63;4969446;28;20030;-74
2023/05/17 04:32:17;;;;;;;21.40;13.50;;;;;;;14.50;100.00;99975.09;4970676;28;20042;-74
2023/05/17 04:34:43;;;;;;;20.67;13.18;;;;;;;14.49;100.00;99973.34;4971023;28;20039;-74
2023/05/17 04:37:08;;;;;;;24.23;13.80;;;;;;;14.49;100.00;99978.53;4970928;28;20078;-72
2023/05/17 04:39:34;;;;;;;18.85;13.07;;;;;;;14.56;100.00;99985.56;4961492;28;20498;-74
2023/05/17 04:41:59;;;;;;;20.77;12.98;;;;;;;14.62;100.00;99993.44;4952689;28;20097;-73
2023/05/17 04:44:26;;;;;;;19.50;13.07;;;;;;;14.61;100.00;99986.47;4970754;28;20041;-73
2023/05/17 04:46:51;;;;;;;21.30;13.40;;;;;;;13.77;100.00;99851.25;4971075;28;20176;-73
2023/05/17 04:49:17;;;;;;;19.98;12.68;;;;;;;14.44;100.00;99965.47;4971288;28;20564;-74
2023/05/17 04:51:43;;;;;;;23.98;14.57;;;;;;;14.12;100.00;99913.13;4971205;28;20544;-74
2023/05/17 04:54:08;;;;;;;22.05;13.57;;;;;;;14.50;100.00;99983.75;4958478;28;20565;-76
2023/05/17 04:56:35;;;;;;;22.90;14.35;;;;;;;14.36;100.00;99977.50;4954071;28;20114;-73
2023/05/17 04:59:01;;;;;;;26.33;13.77;;;;;;;14.37;100.00;99997.44;4953439;28;20086;-74
2023/05/17 05:01:29;;;;;;;21.42;13.43;;;;;;;14.27;100.00;100006.81;4953936;28;20027;-74
2023/05/17 05:03:55;;;;;;;25.20;14.75;;;;;;;14.24;100.00;99998.97;4953999;28;20031;-74
2023/05/17 05:06:22;;;;;;;17.98;13.73;;;;;;;14.23;100.00;100003.31;4953867;28;20454;-81
2023/05/17 05:08:47;;;;;;;22.23;15.80;;;;;;;14.23;100.00;100002.41;4953816;28;20502;-73
2023/05/17 05:11:13;;;;;;;33.42;21.85;;;;;;;14.21;100.00;99998.94;4953929;28;20023;-74
2023/05/17 05:13:40;;;;;;;35.78;26.63;;;;;;;14.24;100.00;100007.66;4953757;28;20030;-74
2023/05/17 05:16:06;;;;;;;42.63;35.35;;;;;;;14.30;100.00;100013.78;4953547;28;20046;-74
2023/05/17 05:18:31;;;;;;;30.38;21.42;;;;;;;14.13;100.00;99979.78;4953947;28;20031;-75
2023/05/17 05:20:58;;;;;;;27.38;19.08;;;;;;;14.24;100.00;100005.06;4953669;28;20067;-74
2023/05/17 05:23:23;;;;;;;23.30;15.88;;;;;;;14.15;100.00;99998.84;4953754;28;20034;-75
2023/05/17 05:25:49;;;;;;;18.40;13.35;;;;;;;13.96;100.00;99977.81;4953654;28;20418;-74
2023/05/17 05:28:14;;;;;;;18.73;12.25;;;;;;;14.15;100.00;99994.50;4953544;28;20027;-74
2023/05/17 05:30:40;;;;;;;18.17;13.32;;;;;;;14.14;100.00;99989.31;4953380;28;20097;-74
2023/05/17 05:33:05;;;;;;;19.67;12.40;;;;;;;14.26;100.00;100002.47;4953582;28;20035;-74
2023/05/17 05:35:31;;;;;;;25.27;13.65;;;;;;;14.21;100.00;99984.22;4953404;28;20035;-74
2023/05/17 05:37:57;;;;;;;21.40;12.93;;;;;;;14.26;100.00;99992.09;4953229;28;20035;-75
2023/05/17 05:40:22;;;;;;;19.73;14.02;;;;;;;13.94;100.00;99930.19;4970916;28;20076;-75
2023/05/17 05:42:48;;;;;;;19.67;13.57;;;;;;;14.30;100.00;99985.22;4972158;28;20470;-74
2023/05/17 05:45:13;;;;;;;20.13;14.63;;;;;;;14.34;100.00;99974.00;4971921;28;20039;-76
2023/05/17 05:47:39;;;;;;;21.30;13.80;;;;;;;14.31;100.00;99979.19;4972245;28;20066;-81
2023/05/17 05:50:05;;;;;;;18.58;13.43;;;;;;;14.47;100.00;99978.53;4971919;28;20445;-78
2023/05/17 05:52:31;;;;;;;21.73;13.95;;;;;;;14.13;100.00;99920.97;4970782;28;20034;-79
2023/05/17 05:54:56;;;;;;;20.67;14.38;;;;;;;14.59;100.00;99979.53;4970141;28;20031;-75
2023/05/17 05:57:22;;;;;;;25.63;14.52;;;;;;;14.13;100.00;99909.69;4970816;28;20105;-75
2023/05/17 05:59:47;;;;;;;23.70;14.35;;;;;;;14.54;100.00;99985.53;4970204;28;20097;-74
2023/05/17 06:02:13;;;;;;;18.58;13.65;;;;;;;13.82;100.00;99867.72;4971771;28;20536;-75
2023/05/17 06:04:38;;;;;;;31.25;15.05;;;;;;;14.29;100.00;99947.97;4971469;28;20097;-75
2023/05/17 06:07:04;;;;;;;37.60;16.85;;;;;;;14.65;100.00;100005.63;4971719;28;20025;-75
2023/05/17 06:09:29;;;;;;;50.55;18.15;;;;;;;14.59;100.00;99982.13;4971351;28;20085;-75
2023/05/17 06:11:54;;;;;;;41.92;16.67;;;;;;;14.71;100.00;100009.16;4971405;28;20023;-75
2023/05/17 06:14:20;;;;;;;37.88;16.95;;;;;;;14.58;100.00;99996.84;4971417;28;20469;-76
2023/05/17 06:16:47;;;;;;;15.77;12.75;;;;;;;14.76;100.00;100008.38;4971780;28;20030;-75
2023/05/17 06:19:13;;;;;;;22.13;12.98;;;;;;;14.84;100.00;100007.59;4971743;28;20058;-74
2023/05/17 06:21:38;;;;;;;21.05;14.15;;;;;;;14.76;100.00;99995.38;4971724;28;20027;-74
2023/05/17 06:24:04;;;;;;;20.08;12.73;;;;;;;14.86;100.00;100013.66;4971616;28;20101;-77
2023/05/17 06:26:30;;;;;;;18.75;12.65;;;;;;;14.58;100.00;99952.69;4971467;28;20031;-74
2023/05/17 06:28:55;;;;;;;15.43;11.98;;;;;;;14.96;100.00;99995.59;4971406;28;20406;-76
2023/05/17 06:31:21;;;;;;;17.38;11.75;;;;;;;15.06;100.00;99988.78;4971742;28;20027;-80
2023/05/17 06:33:46;;;;;;;16.30;11.50;;;;;;;15.12;100.00;100001.84;4971649;28;20390;-74
2023/05/17 06:36:12;;;;;;;17.63;11.88;;;;;;;15.20;100.00;99997.59;4971391;28;20504;-74
2023/05/17 06:38:37;;;;;;;17.02;11.18;;;;;;;15.37;100.00;100001.22;4971600;28;20039;-74
2023/05/17 06:41:02;;;;;;;17.52;12.45;;;;;;;15.41;100.00;99993.47;4971389;28;20461;-74
2023/05/17 06:43:28;;;;;;;21.17;11.88;;;;;;;15.54;100.00;100003.13;4971450;28;20104;-74
2023/05/17 06:45:53;;;;;;;15.07;10.30;;;;;;;15.57;100.00;99997.09;4971425;28;20461;-73
2023/05/17 06:48:19;;;;;;;15.48;9.88;;;;;;;15.62;100.00;99998.00;4971354;28;20058;-74
2023/05/17 06:50:44;;;;;;;14.40;9.90;;;;;;;15.61;100.00;99981.50;4971433;28;20413;-75
2023/05/17 06:53:11;;;;;;;17.05;10.27;;;;;;;15.78;100.00;99993.78;4971340;28;20060;-74
2023/05/17 06:55:36;;;;;;;16.67;10.73;;;;;;;15.86;100.00;99989.53;4971135;28;20027;-74
2023/05/17 06:58:02;;;;;;;15.85;10.55;;;;;;;15.93;100.00;99993.94;4970963;28;20082;-76
2023/05/17 07:00:27;;;;;;;18.35;9.93;;;;;;;15.89;100.00;99983.47;4971379;28;20037;-75
2023/05/17 07:02:53;;;;;;;18.05;10.10;;;;;;;16.01;100.00;99986.16;4970135;28;20470;-74
2023/05/17 07:05:20;;;;;;;15.65;10.27;;;;;;;15.84;100.00;99970.44;4971265;28;20394;-73
2023/05/17 07:07:45;;;;;;;18.42;10.57;;;;;;;16.04;100.00;99999.22;4971477;28;20026;-74
2023/05/17 07:10:11;;;;;;;16.00;9.82;;;;;;;16.09;100.00;99997.50;4971176;28;20386;-74
2023/05/17 07:12:36;;;;;;;17.70;9.73;;;;;;;16.12;100.00;99981.03;4970978;28;20034;-74
2023/05/17 07:15:02;;;;;;;16.35;9.07;;;;;;;15.96;100.00;99974.84;4970718;28;20047;-75
2023/05/17 07:17:28;;;;;;;14.43;8.77;;;;;;;15.97;100.00;99994.81;4971324;28;20474;-75
2023/05/17 07:19:53;;;;;;;18.45;9.65;;;;;;;15.63;100.00;99945.97;4971627;28;20031;-74
2023/05/17 07:22:19;;;;;;;13.95;9.55;;;;;;;15.96;100.00;99991.38;4973461;28;20093;-73
2023/05/17 07:24:45;;;;;;;16.35;10.23;;;;;;;16.06;100.00;100010.50;4974629;28;20411;-79
2023/05/17 07:27:10;;;;;;;15.75;9.98;;;;;;;15.61;100.00;99939.84;4974460;28;20031;-76
2023/05/17 07:29:36;;;;;;;16.77;10.07;;;;;;;15.65;100.00;99933.84;4974545;28;20468;-74
2023/05/17 07:32:02;;;;;;;16.30;9.95;;;;;;;16.11;100.00;100000.13;4974396;28;20030;-73
2023/05/17 07:34:27;;;;;;;18.77;9.90;;;;;;;15.83;100.00;99953.94;4974591;28;20030;-74
2023/05/17 07:36:52;;;;;;;21.02;10.57;;;;;;;16.11;100.00;100001.00;4974529;28;20138;-74
2023/05/17 07:39:18;;;;;;;20.05;10.45;;;;;;;16.10;100.00;99998.38;4974311;28;20046;-74
2023/05/17 07:41:43;;;;;;;16.90;10.60;;;;;;;15.93;100.00;99978.31;4974232;28;20081;-76
2023/05/17 07:44:09;;;;;;;17.83;10.77;;;;;;;16.13;100.00;99998.41;4974290;28;20115;-72
2023/05/17 07:46:35;;;;;;;15.73;11.00;;;;;;;16.23;100.00;100002.81;4974554;28;20031;-73
2023/05/17 07:49:01;;;;;;;16.85;10.63;;;;;;;16.12;100.00;99978.44;4974367;28;20035;-73
2023/05/17 07:51:26;;;;;;;16.23;11.60;;;;;;;15.76;100.00;99925.22;4974106;28;20031;-73
2023/05/17 07:53:52;;;;;;;20.17;11.40;;;;;;;16.14;100.00;99974.97;4974264;28;20068;-72
2023/05/17 07:56:17;;;;;;;20.80;11.05;;;;;;;16.23;100.00;99991.53;4952019;28;20139;-75
2023/05/17 07:58:43;;;;;;;21.05;11.90;;;;;;;16.33;100.00;100012.41;4952405;28;20078;-78
2023/05/17 08:01:08;;;;;;;18.38;11.73;;;;;;;16.38;100.00;100003.78;4952312;28;20084;-75
2023/05/17 08:03:35;;;;;;;20.27;11.48;;;;;;;16.43;100.00;100004.66;4952416;28;20035;-73
2023/05/17 08:06:00;;;;;;;19.88;11.85;;;;;;;16.09;100.00;99936.78;4952208;28;20054;-73
2023/05/17 08:08:25;;;;;;;17.27;12.00;;;;;;;16.46;100.00;100009.88;4952152;28;20031;-73
2023/05/17 08:10:51;;;;;;;19.50;11.88;;;;;;;16.50;100.00;100006.44;4952282;28;20039;-73
2023/05/17 08:13:17;;;;;;;20.80;12.07;;;;;;;16.54;100.00;100007.34;4952051;28;20473;-72
2023/05/17 08:15:42;;;;;;;20.65;12.20;;;;;;;16.21;100.00;99944.63;4951818;28;20066;-73
2023/05/17 08:18:09;;;;;;;20.77;11.80;;;;;;;16.32;100.00;99974.22;4951927;28;20070;-76
2023/05/17 08:20:34;;;;;;;22.33;13.48;;;;;;;16.53;100.00;99997.78;4951958;28;20062;-73
2023/05/17 08:23:00;;;;;;;21.08;13.02;;;;;;;16.62;100.00;100008.22;4951902;28;20085;-73
2023/05/17 08:25:26;;;;;;;18.42;12.07;;;;;;;16.71;100.00;100002.19;4951756;28;20082;-76
2023/05/17 08:27:51;;;;;;;20.05;12.68;;;;;;;16.53;100.00;99969.13;4967658;28;20424;-74
2023/05/17 08:30:17;;;;;;;19.42;12.15;;;;;;;16.59;100.00;99998.66;4973750;28;20035;-79
2023/05/17 08:32:44;;;;;;;18.15;12.70;;;;;;;15.84;100.00;99874.13;4972897;28;20030;-77
2023/05/17 08:35:10;;;;;;;19.38;14.38;;;;;;;16.21;100.00;99923.78;4973428;28;20092;-75
2023/05/17 08:37:35;;;;;;;24.13;14.50;;;;;;;16.69;100.00;99998.72;4973244;28;20445;-75
2023/05/17 08:40:21;;;;;;;21.75;13.63;;;;;;;16.66;100.00;99997.84;4972921;28;20040;-76
2023/05/17 08:42:47;;;;;;;22.80;13.52;;;;;;;16.38;100.00;99952.53;4970670;28;20532;-73
2023/05/17 08:45:14;;;;;;;21.02;14.35;;;;;;;16.75;100.00;100006.56;4970336;28;20395;-74
2023/05/17 08:47:41;;;;;;;17.17;13.48;;;;;;;16.77;100.00;100003.09;4970621;28;20034;-74
2023/05/17 08:50:07;;;;;;;22.50;13.15;;;;;;;16.78;100.00;100003.97;4970462;28;20441;-76
2023/05/17 08:52:36;;;;;;;19.67;13.60;;;;;;;16.77;100.00;100000.50;4970568;28;20039;-76
2023/05/17 08:55:02;;;;;;;17.98;13.93;;;;;;;16.80;100.00;100005.69;4970408;28;20118;-75
2023/05/17 08:57:29;;;;;;;22.70;12.73;;;;;;;16.77;100.00;100010.91;4970484;28;20039;-73
2023/05/17 08:59:59;;;;;;;20.23;12.38;;;;;;;16.77;100.00;100007.44;4970344;28;20555;-75
2023/05/17 09:02:27;;;;;;;17.30;12.68;;;;;;;16.30;100.00;99934.25;4969317;28;20078;-75
2023/05/17 09:04:54;;;;;;;20.20;13.18;;;;;;;16.23;100.00;99929.03;4969321;28;20038;-75
2023/05/17 09:07:21;;;;;;;18.25;13.45;;;;;;;16.64;100.00;99985.66;4953720;28;20054;-74
2023/05/17 09:09:51;;;;;;;16.95;12.15;;;;;;;16.57;100.00;99982.13;4970035;28;20033;-75
2023/05/17 09:12:17;;;;;;;20.13;12.30;;;;;;;16.42;100.00;99948.22;4985954;28;20039;-75
2023/05/17 09:14:42;;;;;;;18.88;12.95;;;;;;;16.60;100.00;99992.59;4971007;28;20486;-74
2023/05/17 09:17:19;;;;;;;18.92;11.70;;;;;;;16.65;100.00;100003.03;4972114;28;20089;-75
2023/05/17 09:19:47;;;;;;;17.70;11.73;;;;;;;16.51;100.00;99984.75;4970550;28;20031;-77
2023/05/17 09:22:14;;;;;;;17.00;12.00;;;;;;;16.67;100.00;100006.50;4972558;28;20034;-74
2023/05/17 09:24:41;;;;;;;23.55;12.80;;;;;;;16.63;100.00;100004.75;4972224;28;20065;-74
2023/05/17 09:27:06;;;;;;;18.10;12.60;;;;;;;16.66;100.00;100007.41;4972217;28;20455;-73
2023/05/17 09:29:32;;;;;;;19.98;12.60;;;;;;;16.71;100.00;100008.28;4971767;28;20129;-73
2023/05/17 09:32:15;;;;;;;19.73;12.20;;;;;;;16.22;100.00;99922.06;4970420;28;20074;-74
2023/05/17 09:34:42;;;;;;;18.27;11.75;;;;;;;16.72;100.00;99999.56;4970343;28;20027;-73
2023/05/17 09:37:15;;;;;;;15.90;11.50;;;;;;;16.55;100.00;99973.47;4971344;28;20559;-74
2023/05/17 09:39:46;;;;;;;21.48;12.10;;;;;;;16.80;100.00;99994.41;4971916;28;20050;-74
2023/05/17 09:42:12;;;;;;;17.15;11.40;;;;;;;16.32;100.00;99910.81;4971488;28;20082;-73
2023/05/17 09:45:00;;;;;;;17.40;11.70;;;;;;;16.79;100.00;99988.31;4970615;28;20114;-75
2023/05/17 09:47:27;;;;;;;17.20;11.68;;;;;;;16.85;100.00;99991.81;4970006;28;20066;-77
2023/05/17 09:49:56;;;;;;;19.00;11.90;;;;;;;16.82;100.00;99980.53;4971519;28;20026;-74
2023/05/17 09:52:23;;;;;;;17.05;10.88;;;;;;;16.80;100.00;99977.03;4971615;28;20567;-74
2023/05/17 09:54:56;;;;;;;18.73;11.00;;;;;;;16.81;100.00;99990.94;4971742;28;20114;-74
2023/05/17 09:57:23;;;;;;;17.55;9.70;;;;;;;16.62;100.00;99967.41;4970998;28;20042;-74
2023/05/17 09:59:50;;;;;;;35.03;10.63;;;;;;;16.77;100.00;99991.78;4971731;28;20085;-74
2023/05/17 10:02:34;;;;;;;15.55;8.93;;;;;;;16.75;100.00;99988.31;4971315;28;20035;-74
2023/05/17 10:05:04;;;;;;;15.23;8.68;;;;;;;16.74;100.00;99981.38;4984660;28;20031;-75
2023/05/17 10:07:30;;;;;;;18.98;9.45;;;;;;;16.66;100.00;99995.22;4968792;28;20114;-73
2023/05/17 10:09:57;;;;;;;18.77;9.77;;;;;;;16.40;100.00;99955.13;4971641;28;20027;-74
2023/05/17 10:12:26;;;;;;;16.88;9.30;;;;;;;16.71;100.00;99996.97;4984880;28;20051;-73
2023/05/17 10:14:54;;;;;;;17.55;8.95;;;;;;;16.52;100.00;99972.56;4971113;28;20023;-74
2023/05/17 10:17:20;;;;;;;15.60;8.75;;;;;;;16.64;100.00;99996.09;4969294;28;20047;-74
2023/05/17 10:19:47;;;;;;;19.38;9.00;;;;;;;16.55;100.00;99967.38;4952678;28;20031;-77
2023/05/17 10:22:13;;;;;;;20.27;10.05;;;;;;;16.61;100.00;99976.09;4952500;28;20034;-75
2023/05/17 10:24:39;;;;;;;17.90;9.27;;;;;;;16.51;100.00;99969.13;4971026;28;20041;-74
2023/05/17 10:27:06;;;;;;;17.40;9.68;;;;;;;16.59;100.00;99990.00;4971424;28;20030;-76
2023/05/17 10:29:33;;;;;;;16.55;9.00;;;;;;;16.49;100.00;99982.09;4971166;28;20027;-75
2023/05/17 10:32:21;;;;;;;15.40;8.40;;;;;;;16.38;100.00;99965.56;4965960;28;20073;-75
2023/05/17 10:34:49;;;;;;;17.42;8.80;;;;;;;16.13;100.00;99921.16;4968622;28;20045;-75
2023/05/17 10:37:18;;;;;;;15.27;8.50;;;;;;;16.39;100.00;99964.69;4968819;28;20485;-74
2023/05/17 10:39:45;;;;;;;14.48;8.27;;;;;;;16.51;100.00;99971.72;4968470;28;20050;-75
2023/05/17 10:42:13;;;;;;;16.88;8.85;;;;;;;16.61;100.00;99983.03;4966572;28;20117;-76
2023/05/17 10:44:38;;;;;;;12.38;8.80;;;;;;;16.65;100.00;99977.84;4968961;28;20038;-75
2023/05/17 10:47:07;;;;;;;13.77;6.82;;;;;;;16.56;100.00;99956.06;4968753;28;20074;-76
2023/05/17 10:49:36;;;;;;;10.05;5.80;;;;;;;16.64;100.00;99975.25;4969115;28;20042;-76
2023/05/17 10:52:17;;;;;;;9.80;5.80;;;;;;;16.62;100.00;99976.97;4968344;28;20074;-76
2023/05/17 10:54:46;;;;;;;11.60;5.82;;;;;;;16.57;100.00;99953.47;4968862;28;20106;-76
2023/05/17 10:57:36;;;;;;;9.85;6.00;;;;;;;16.71;100.00;99965.69;4971154;28;20067;-74
2023/05/17 11:00:06;;;;;;;8.98;5.60;;;;;;;16.65;100.00;99959.59;4972737;28;20042;-79
2023/05/17 11:02:33;;;;;;;10.82;5.18;;;;;;;16.58;100.00;99950.00;4977330;28;20077;-74
2023/05/17 11:04:59;;;;;;;9.82;5.65;;;;;;;16.63;100.00;99963.06;4993680;28;20030;-75
2023/05/17 11:07:31;;;;;;;12.55;6.82;;;;;;;16.49;100.00;99939.56;4994660;28;20113;-74
2023/05/17 11:10:02;;;;;;;10.65;5.72;;;;;;;16.61;100.00;99970.00;4994710;28;20041;-75
2023/05/17 11:12:42;;;;;;;12.20;6.50;;;;;;;16.60;100.00;99969.13;4994411;28;20496;-73